Terminal Aerodrome Forecast
Issued by NWS

Home | Current Version | Previous Version | Text Only | Print | Product List | Glossary On
Versions: 1 2 3 4 5 6 7 8 9 10 11 12 13 14
000
FTAK31 PAJN 272326
TAFAWG
TAF
PAWG 272326Z 2800/2824 VRB05KT P6SM VCSH FEW030 BKN050 OVC070
     FM280300 12011G18KT 5SM RA BR BKN020 OVC040 WS020/16025KT
     FM281100 12010G15KT 6SM -RA BR BKN020 OVC035 WS020/16025KT
     FM281400 12013G23KT 4SM RA BR BKN018 OVC030 WS020/16025KT
     FM281800 12015G27KT 4SM RA BR BKN015 OVC030 WS020/16025KT
      AMD LTD TO CLD VIS AND WIND 2806/2815=

USA.gov is the U.S. government's official web portal to all federal, state and local government web resources and services.